sensor_id;sensor_type;location;lat;lon;timestamp;temperature;humidity
20759;DHT22;10539;53.686;9.158;2023-02-25T00:02:19;5.30;99.90
20759;DHT22;10539;53.686;9.158;2023-02-25T00:04:45;5.30;99.90
20759;DHT22;10539;53.686;9.158;2023-02-25T00:07:11;5.30;99.90
20759;DHT22;10539;53.686;9.158;2023-02-25T00:09:36;5.20;99.90
20759;DHT22;10539;53.686;9.158;2023-02-25T00:12:02;5.10;99.90
20759;DHT22;10539;53.686;9.158;2023-02-25T00:14:29;5.10;99.90
20759;DHT22;10539;53.686;9.158;2023-02-25T00:16:54;5.10;99.90
20759;DHT22;10539;53.686;9.158;2023-02-25T00:19:24;5.00;99.90
20759;DHT22;10539;53.686;9.158;2023-02-25T00:21:51;5.00;99.90
20759;DHT22;10539;53.686;9.158;2023-02-25T00:24:16;5.00;99.90
20759;DHT22;10539;53.686;9.158;2023-02-25T00:26:43;5.00;99.90
20759;DHT22;10539;53.686;9.158;2023-02-25T00:29:09;5.00;99.90
20759;DHT22;10539;53.686;9.158;2023-02-25T00:31:34;4.90;99.90
20759;DHT22;10539;53.686;9.158;2023-02-25T00:34:00;4.90;99.90
20759;DHT22;10539;53.686;9.158;2023-02-25T00:36:26;5.00;99.90
20759;DHT22;10539;53.686;9.158;2023-02-25T00:38:54;4.90;99.90
20759;DHT22;10539;53.686;9.158;2023-02-25T00:41:23;4.90;99.90
20759;DHT22;10539;53.686;9.158;2023-02-25T00:43:51;4.90;99.90
20759;DHT22;10539;53.686;9.158;2023-02-25T00:46:18;4.90;99.90
20759;DHT22;10539;53.686;9.158;2023-02-25T00:48:44;5.00;99.90
20759;DHT22;10539;53.686;9.158;2023-02-25T00:51:17;5.00;99.90
20759;DHT22;10539;53.686;9.158;2023-02-25T00:53:44;4.90;99.90
20759;DHT22;10539;53.686;9.158;2023-02-25T00:56:12;5.00;99.90
20759;DHT22;10539;53.686;9.158;2023-02-25T00:58:41;4.90;99.90
20759;DHT22;10539;53.686;9.158;2023-02-25T01:01:28;4.90;99.90
20759;DHT22;10539;53.686;9.158;2023-02-25T01:03:56;4.90;99.90
20759;DHT22;10539;53.686;9.158;2023-02-25T01:06:22;4.90;99.90
20759;DHT22;10539;53.686;9.158;2023-02-25T01:08:48;4.90;99.90
20759;DHT22;10539;53.686;9.158;2023-02-25T01:11:28;4.90;99.90
20759;DHT22;10539;53.686;9.158;2023-02-25T01:14:00;4.80;99.90
20759;DHT22;10539;53.686;9.158;2023-02-25T01:16:30;4.80;99.90
20759;DHT22;10539;53.686;9.158;2023-02-25T01:19:06;4.80;99.90
20759;DHT22;10539;53.686;9.158;2023-02-25T01:21:36;4.80;99.90
20759;DHT22;10539;53.686;9.158;2023-02-25T01:24:06;4.80;99.90
20759;DHT22;10539;53.686;9.158;2023-02-25T01:26:36;4.80;99.90
20759;DHT22;10539;53.686;9.158;2023-02-25T01:29:09;4.80;99.90
20759;DHT22;10539;53.686;9.158;2023-02-25T01:31:35;4.80;99.90
20759;DHT22;10539;53.686;9.158;2023-02-25T01:34:03;4.80;99.90
20759;DHT22;10539;53.686;9.158;2023-02-25T01:36:30;4.70;99.90
20759;DHT22;10539;53.686;9.158;2023-02-25T01:38:58;4.70;99.90
20759;DHT22;10539;53.686;9.158;2023-02-25T01:41:25;4.70;99.90
20759;DHT22;10539;53.686;9.158;2023-02-25T01:44:08;4.70;99.90
20759;DHT22;10539;53.686;9.158;2023-02-25T01:46:36;4.70;99.90
20759;DHT22;10539;53.686;9.158;2023-02-25T01:49:04;4.70;99.90
20759;DHT22;10539;53.686;9.158;2023-02-25T01:51:31;4.70;99.90
20759;DHT22;10539;53.686;9.158;2023-02-25T01:53:58;4.70;99.90
20759;DHT22;10539;53.686;9.158;2023-02-25T01:56:29;4.60;99.90
20759;DHT22;10539;53.686;9.158;2023-02-25T01:58:57;4.60;99.90
20759;DHT22;10539;53.686;9.158;2023-02-25T02:01:25;4.60;99.90
20759;DHT22;10539;53.686;9.158;2023-02-25T02:03:54;4.50;99.90
20759;DHT22;10539;53.686;9.158;2023-02-25T02:06:26;4.50;99.90
20759;DHT22;10539;53.686;9.158;2023-02-25T02:08:53;4.50;99.90
20759;DHT22;10539;53.686;9.158;2023-02-25T02:11:19;4.50;99.90
20759;DHT22;10539;53.686;9.158;2023-02-25T02:13:54;4.60;99.90
20759;DHT22;10539;53.686;9.158;2023-02-25T02:18:58;4.50;99.90
20759;DHT22;10539;53.686;9.158;2023-02-25T02:21:44;4.50;99.90
20759;DHT22;10539;53.686;9.158;2023-02-25T02:25:16;4.50;99.90
20759;DHT22;10539;53.686;9.158;2023-02-25T02:33:07;4.30;99.90
20759;DHT22;10539;53.686;9.158;2023-02-25T02:35:44;4.20;99.90
20759;DHT22;10539;53.686;9.158;2023-02-25T02:41:09;4.20;99.90
20759;DHT22;10539;53.686;9.158;2023-02-25T02:43:49;4.20;99.90
20759;DHT22;10539;53.686;9.158;2023-02-25T02:46:37;4.30;99.90
20759;DHT22;10539;53.686;9.158;2023-02-25T02:49:05;4.20;99.90
20759;DHT22;10539;53.686;9.158;2023-02-25T02:54:13;4.10;99.90
20759;DHT22;10539;53.686;9.158;2023-02-25T02:56:41;4.10;99.90
20759;DHT22;10539;53.686;9.158;2023-02-25T02:59:29;4.00;99.90
20759;DHT22;10539;53.686;9.158;2023-02-25T03:02:07;4.00;99.90
20759;DHT22;10539;53.686;9.158;2023-02-25T03:04:37;4.00;99.90
20759;DHT22;10539;53.686;9.158;2023-02-25T03:07:07;4.00;99.90
20759;DHT22;10539;53.686;9.158;2023-02-25T03:09:49;4.00;99.90
20759;DHT22;10539;53.686;9.158;2023-02-25T03:12:16;4.00;99.90
20759;DHT22;10539;53.686;9.158;2023-02-25T03:14:42;4.00;99.90
20759;DHT22;10539;53.686;9.158;2023-02-25T03:17:11;4.00;99.90
20759;DHT22;10539;53.686;9.158;2023-02-25T03:19:47;4.00;99.90
20759;DHT22;10539;53.686;9.158;2023-02-25T03:22:25;4.00;99.90
20759;DHT22;10539;53.686;9.158;2023-02-25T03:25:08;4.10;99.90
20759;DHT22;10539;53.686;9.158;2023-02-25T03:30:59;4.10;99.90
20759;DHT22;10539;53.686;9.158;2023-02-25T03:35:56;4.10;99.90
20759;DHT22;10539;53.686;9.158;2023-02-25T03:38:26;4.10;99.90
20759;DHT22;10539;53.686;9.158;2023-02-25T03:40:54;4.20;99.90
20759;DHT22;10539;53.686;9.158;2023-02-25T03:43:25;4.20;99.90
20759;DHT22;10539;53.686;9.158;2023-02-25T03:45:53;4.20;99.90
20759;DHT22;10539;53.686;9.158;2023-02-25T03:48:21;4.20;99.90
20759;DHT22;10539;53.686;9.158;2023-02-25T03:51:00;4.20;99.90
20759;DHT22;10539;53.686;9.158;2023-02-25T03:53:27;4.20;99.90
20759;DHT22;10539;53.686;9.158;2023-02-25T03:55:55;4.20;99.90
20759;DHT22;10539;53.686;9.158;2023-02-25T03:58:21;4.20;99.90
20759;DHT22;10539;53.686;9.158;2023-02-25T04:00:51;4.20;99.90
20759;DHT22;10539;53.686;9.158;2023-02-25T04:03:19;4.30;99.90
20759;DHT22;10539;53.686;9.158;2023-02-25T04:05:44;4.30;99.90
20759;DHT22;10539;53.686;9.158;2023-02-25T04:08:10;4.30;99.90
20759;DHT22;10539;53.686;9.158;2023-02-25T04:10:41;4.20;99.90
20759;DHT22;10539;53.686;9.158;2023-02-25T04:13:12;4.30;99.90
20759;DHT22;10539;53.686;9.158;2023-02-25T04:15:39;4.30;99.90
20759;DHT22;10539;53.686;9.158;2023-02-25T04:18:05;4.30;99.90
20759;DHT22;10539;53.686;9.158;2023-02-25T04:20:31;4.30;99.90
20759;DHT22;10539;53.686;9.158;2023-02-25T04:22:58;4.20;99.90
20759;DHT22;10539;53.686;9.158;2023-02-25T04:25:25;4.20;99.90
20759;DHT22;10539;53.686;9.158;2023-02-25T04:27:51;4.20;99.90
20759;DHT22;10539;53.686;9.158;2023-02-25T04:30:17;4.20;99.90
20759;DHT22;10539;53.686;9.158;2023-02-25T04:32:43;4.20;99.90
20759;DHT22;10539;53.686;9.158;2023-02-25T04:35:09;4.20;99.90
20759;DHT22;10539;53.686;9.158;2023-02-25T04:37:40;4.20;99.90
20759;DHT22;10539;53.686;9.158;2023-02-25T04:40:09;4.10;99.90
20759;DHT22;10539;53.686;9.158;2023-02-25T04:42:38;4.10;99.90
20759;DHT22;10539;53.686;9.158;2023-02-25T04:45:06;4.10;99.90
20759;DHT22;10539;53.686;9.158;2023-02-25T04:47:32;4.10;99.90
20759;DHT22;10539;53.686;9.158;2023-02-25T04:49:58;4.10;99.90
20759;DHT22;10539;53.686;9.158;2023-02-25T04:52:23;4.10;99.90
20759;DHT22;10539;53.686;9.158;2023-02-25T04:54:49;4.10;99.90
20759;DHT22;10539;53.686;9.158;2023-02-25T04:57:15;4.20;99.90
20759;DHT22;10539;53.686;9.158;2023-02-25T04:59:41;4.20;99.90
20759;DHT22;10539;53.686;9.158;2023-02-25T05:02:08;4.20;99.90
20759;DHT22;10539;53.686;9.158;2023-02-25T05:04:35;4.20;99.90
20759;DHT22;10539;53.686;9.158;2023-02-25T05:07:01;4.20;99.90
20759;DHT22;10539;53.686;9.158;2023-02-25T05:09:27;4.20;99.90
20759;DHT22;10539;53.686;9.158;2023-02-25T05:11:53;4.10;99.90
20759;DHT22;10539;53.686;9.158;2023-02-25T05:14:18;4.10;99.90
20759;DHT22;10539;53.686;9.158;2023-02-25T05:16:44;4.20;99.90
20759;DHT22;10539;53.686;9.158;2023-02-25T05:19:16;4.20;99.90
20759;DHT22;10539;53.686;9.158;2023-02-25T05:21:42;4.20;99.90
20759;DHT22;10539;53.686;9.158;2023-02-25T05:24:08;4.30;99.90
20759;DHT22;10539;53.686;9.158;2023-02-25T05:26:33;4.30;99.90
20759;DHT22;10539;53.686;9.158;2023-02-25T05:28:59;4.30;99.90
20759;DHT22;10539;53.686;9.158;2023-02-25T05:31:25;4.20;99.90
20759;DHT22;10539;53.686;9.158;2023-02-25T05:33:51;4.30;99.90
20759;DHT22;10539;53.686;9.158;2023-02-25T05:36:17;4.20;99.90
20759;DHT22;10539;53.686;9.158;2023-02-25T05:38:44;4.20;99.90
20759;DHT22;10539;53.686;9.158;2023-02-25T05:41:10;4.20;99.90
20759;DHT22;10539;53.686;9.158;2023-02-25T05:43:37;4.20;99.90
20759;DHT22;10539;53.686;9.158;2023-02-25T05:46:04;4.20;99.90
20759;DHT22;10539;53.686;9.158;2023-02-25T05:48:31;4.20;99.90
20759;DHT22;10539;53.686;9.158;2023-02-25T05:51:05;4.20;99.90
20759;DHT22;10539;53.686;9.158;2023-02-25T05:53:32;4.20;99.90
20759;DHT22;10539;53.686;9.158;2023-02-25T05:55:58;4.10;99.90
20759;DHT22;10539;53.686;9.158;2023-02-25T05:58:24;4.10;99.90
20759;DHT22;10539;53.686;9.158;2023-02-25T06:00:50;4.10;99.90
20759;DHT22;10539;53.686;9.158;2023-02-25T06:03:16;4.10;99.90
20759;DHT22;10539;53.686;9.158;2023-02-25T06:05:42;4.10;99.90
20759;DHT22;10539;53.686;9.158;2023-02-25T06:08:09;4.10;99.90
20759;DHT22;10539;53.686;9.158;2023-02-25T06:10:35;4.00;99.90
20759;DHT22;10539;53.686;9.158;2023-02-25T06:13:04;4.00;99.90
20759;DHT22;10539;53.686;9.158;2023-02-25T06:15:30;4.10;99.90
20759;DHT22;10539;53.686;9.158;2023-02-25T06:17:55;4.10;99.90
20759;DHT22;10539;53.686;9.158;2023-02-25T06:20:21;4.10;99.90
20759;DHT22;10539;53.686;9.158;2023-02-25T06:22:50;4.00;99.90
20759;DHT22;10539;53.686;9.158;2023-02-25T06:25:17;4.00;99.90
20759;DHT22;10539;53.686;9.158;2023-02-25T06:27:42;4.10;99.90
20759;DHT22;10539;53.686;9.158;2023-02-25T06:30:09;4.10;99.90
20759;DHT22;10539;53.686;9.158;2023-02-25T06:32:35;4.10;99.90
20759;DHT22;10539;53.686;9.158;2023-02-25T06:35:01;4.10;99.90
20759;DHT22;10539;53.686;9.158;2023-02-25T06:37:27;4.10;99.90
20759;DHT22;10539;53.686;9.158;2023-02-25T06:39:53;4.00;99.90
20759;DHT22;10539;53.686;9.158;2023-02-25T06:42:19;4.00;99.90
20759;DHT22;10539;53.686;9.158;2023-02-25T06:44:45;4.10;99.90
20759;DHT22;10539;53.686;9.158;2023-02-25T06:47:11;4.00;99.90
20759;DHT22;10539;53.686;9.158;2023-02-25T06:49:36;4.00;99.90
20759;DHT22;10539;53.686;9.158;2023-02-25T06:52:02;4.10;99.90
20759;DHT22;10539;53.686;9.158;2023-02-25T06:54:28;4.00;99.90
20759;DHT22;10539;53.686;9.158;2023-02-25T06:56:57;4.10;99.90
20759;DHT22;10539;53.686;9.158;2023-02-25T06:59:22;4.10;99.90
20759;DHT22;10539;53.686;9.158;2023-02-25T07:01:48;4.10;99.90
20759;DHT22;10539;53.686;9.158;2023-02-25T07:04:16;4.00;99.90
20759;DHT22;10539;53.686;9.158;2023-02-25T07:06:42;4.00;99.90
20759;DHT22;10539;53.686;9.158;2023-02-25T07:09:08;4.00;99.90
20759;DHT22;10539;53.686;9.158;2023-02-25T07:11:33;4.10;99.90
20759;DHT22;10539;53.686;9.158;2023-02-25T07:14:05;4.10;99.90
20759;DHT22;10539;53.686;9.158;2023-02-25T07:16:31;4.10;99.90
20759;DHT22;10539;53.686;9.158;2023-02-25T07:18:59;4.10;99.90
20759;DHT22;10539;53.686;9.158;2023-02-25T07:21:29;4.10;99.90
20759;DHT22;10539;53.686;9.158;2023-02-25T07:23:56;4.20;99.90
20759;DHT22;10539;53.686;9.158;2023-02-25T07:26:23;4.10;99.90
20759;DHT22;10539;53.686;9.158;2023-02-25T07:28:56;4.10;99.90
20759;DHT22;10539;53.686;9.158;2023-02-25T07:31:26;4.10;99.90
20759;DHT22;10539;53.686;9.158;2023-02-25T07:33:54;4.20;99.90
20759;DHT22;10539;53.686;9.158;2023-02-25T07:36:20;4.10;99.90
20759;DHT22;10539;53.686;9.158;2023-02-25T07:38:46;4.10;99.90
20759;DHT22;10539;53.686;9.158;2023-02-25T07:41:16;4.20;99.90
20759;DHT22;10539;53.686;9.158;2023-02-25T07:43:43;4.10;99.90
20759;DHT22;10539;53.686;9.158;2023-02-25T07:46:09;4.10;99.90
20759;DHT22;10539;53.686;9.158;2023-02-25T07:48:35;4.00;99.90
20759;DHT22;10539;53.686;9.158;2023-02-25T07:51:06;3.90;99.90
20759;DHT22;10539;53.686;9.158;2023-02-25T07:53:32;4.00;99.90
20759;DHT22;10539;53.686;9.158;2023-02-25T07:55:58;3.90;99.90
20759;DHT22;10539;53.686;9.158;2023-02-25T07:58:27;3.90;99.90
20759;DHT22;10539;53.686;9.158;2023-02-25T08:00:53;3.90;99.90
20759;DHT22;10539;53.686;9.158;2023-02-25T08:03:20;3.90;99.90
20759;DHT22;10539;53.686;9.158;2023-02-25T08:05:49;4.00;99.90
20759;DHT22;10539;53.686;9.158;2023-02-25T08:08:16;3.90;99.90
20759;DHT22;10539;53.686;9.158;2023-02-25T08:10:42;3.90;99.90
20759;DHT22;10539;53.686;9.158;2023-02-25T08:13:08;3.90;99.90
20759;DHT22;10539;53.686;9.158;2023-02-25T08:15:39;3.80;99.90
20759;DHT22;10539;53.686;9.158;2023-02-25T08:18:05;3.60;99.90
20759;DHT22;10539;53.686;9.158;2023-02-25T08:20:31;3.60;99.90
20759;DHT22;10539;53.686;9.158;2023-02-25T08:22:57;3.50;99.90
20759;DHT22;10539;53.686;9.158;2023-02-25T08:25:23;3.40;99.90
20759;DHT22;10539;53.686;9.158;2023-02-25T08:27:49;3.40;99.90
20759;DHT22;10539;53.686;9.158;2023-02-25T08:30:22;3.40;99.90
20759;DHT22;10539;53.686;9.158;2023-02-25T08:32:48;3.40;99.90
20759;DHT22;10539;53.686;9.158;2023-02-25T08:35:14;3.40;99.90
20759;DHT22;10539;53.686;9.158;2023-02-25T08:37:43;3.40;99.90
20759;DHT22;10539;53.686;9.158;2023-02-25T08:40:09;3.40;99.90
20759;DHT22;10539;53.686;9.158;2023-02-25T08:42:36;3.40;99.90
20759;DHT22;10539;53.686;9.158;2023-02-25T08:45:03;3.40;99.90
20759;DHT22;10539;53.686;9.158;2023-02-25T08:47:30;3.40;99.90
20759;DHT22;10539;53.686;9.158;2023-02-25T08:49:56;3.40;99.90
20759;DHT22;10539;53.686;9.158;2023-02-25T08:52:22;3.50;99.90
20759;DHT22;10539;53.686;9.158;2023-02-25T08:54:48;3.50;99.90
20759;DHT22;10539;53.686;9.158;2023-02-25T08:57:15;3.50;99.90
20759;DHT22;10539;53.686;9.158;2023-02-25T08:59:41;3.40;99.90
20759;DHT22;10539;53.686;9.158;2023-02-25T09:02:10;3.50;99.90
20759;DHT22;10539;53.686;9.158;2023-02-25T09:04:39;3.50;99.90
20759;DHT22;10539;53.686;9.158;2023-02-25T09:07:05;3.50;99.90
20759;DHT22;10539;53.686;9.158;2023-02-25T09:09:31;3.50;99.90
20759;DHT22;10539;53.686;9.158;2023-02-25T09:11:59;3.40;99.90
20759;DHT22;10539;53.686;9.158;2023-02-25T09:14:25;3.40;99.90
20759;DHT22;10539;53.686;9.158;2023-02-25T09:16:51;3.50;99.90
20759;DHT22;10539;53.686;9.158;2023-02-25T09:19:17;3.50;99.90
20759;DHT22;10539;53.686;9.158;2023-02-25T09:21:44;3.60;99.90
20759;DHT22;10539;53.686;9.158;2023-02-25T09:24:12;3.50;99.90
20759;DHT22;10539;53.686;9.158;2023-02-25T09:26:38;3.50;99.90
20759;DHT22;10539;53.686;9.158;2023-02-25T09:29:05;3.50;99.90
20759;DHT22;10539;53.686;9.158;2023-02-25T09:31:32;3.40;99.90
20759;DHT22;10539;53.686;9.158;2023-02-25T09:34:00;3.50;99.90
20759;DHT22;10539;53.686;9.158;2023-02-25T09:36:29;3.50;99.90
20759;DHT22;10539;53.686;9.158;2023-02-25T09:38:56;3.70;99.90
20759;DHT22;10539;53.686;9.158;2023-02-25T09:41:32;3.80;99.90
20759;DHT22;10539;53.686;9.158;2023-02-25T09:54:51;4.20;99.90
20759;DHT22;10539;53.686;9.158;2023-02-25T09:57:19;4.30;99.90
20759;DHT22;10539;53.686;9.158;2023-02-25T09:59:46;4.30;99.90
20759;DHT22;10539;53.686;9.158;2023-02-25T10:05:11;4.20;99.90
20759;DHT22;10539;53.686;9.158;2023-02-25T10:21:25;4.10;99.90
20759;DHT22;10539;53.686;9.158;2023-02-25T10:24:56;4.10;99.90
20759;DHT22;10539;53.686;9.158;2023-02-25T10:30:27;4.20;99.90
20759;DHT22;10539;53.686;9.158;2023-02-25T10:33:02;4.20;99.90
20759;DHT22;10539;53.686;9.158;2023-02-25T10:35:33;4.30;99.90
20759;DHT22;10539;53.686;9.158;2023-02-25T10:38:02;4.30;99.90
20759;DHT22;10539;53.686;9.158;2023-02-25T10:40:28;4.40;99.90
20759;DHT22;10539;53.686;9.158;2023-02-25T10:42:58;4.40;99.90
20759;DHT22;10539;53.686;9.158;2023-02-25T10:45:29;4.40;99.90
20759;DHT22;10539;53.686;9.158;2023-02-25T10:48:05;4.40;99.90
20759;DHT22;10539;53.686;9.158;2023-02-25T10:50:32;4.40;99.90
20759;DHT22;10539;53.686;9.158;2023-02-25T10:53:03;4.40;99.90
20759;DHT22;10539;53.686;9.158;2023-02-25T10:55:48;4.30;99.90
20759;DHT22;10539;53.686;9.158;2023-02-25T11:04:05;4.60;99.90
20759;DHT22;10539;53.686;9.158;2023-02-25T11:06:35;4.50;99.90
20759;DHT22;10539;53.686;9.158;2023-02-25T11:09:05;4.50;99.90
20759;DHT22;10539;53.686;9.158;2023-02-25T11:11:34;4.50;99.90
20759;DHT22;10539;53.686;9.158;2023-02-25T11:14:13;4.60;99.90
20759;DHT22;10539;53.686;9.158;2023-02-25T11:16:41;4.70;99.90
20759;DHT22;10539;53.686;9.158;2023-02-25T11:19:14;4.70;99.90
20759;DHT22;10539;53.686;9.158;2023-02-25T11:21:43;4.70;99.90
20759;DHT22;10539;53.686;9.158;2023-02-25T11:24:21;4.70;99.90
20759;DHT22;10539;53.686;9.158;2023-02-25T11:26:52;4.70;99.90
20759;DHT22;10539;53.686;9.158;2023-02-25T11:29:30;4.60;99.90
20759;DHT22;10539;53.686;9.158;2023-02-25T11:32:10;4.70;99.90
20759;DHT22;10539;53.686;9.158;2023-02-25T11:37:34;4.70;99.90
20759;DHT22;10539;53.686;9.158;2023-02-25T11:40:02;4.60;99.90
20759;DHT22;10539;53.686;9.158;2023-02-25T11:42:32;4.60;99.90
20759;DHT22;10539;53.686;9.158;2023-02-25T11:45:00;4.70;99.90
20759;DHT22;10539;53.686;9.158;2023-02-25T11:47:31;4.70;99.90
20759;DHT22;10539;53.686;9.158;2023-02-25T11:53:05;4.70;99.90
20759;DHT22;10539;53.686;9.158;2023-02-25T11:55:50;4.60;99.90
20759;DHT22;10539;53.686;9.158;2023-02-25T12:01:14;4.60;99.90
20759;DHT22;10539;53.686;9.158;2023-02-25T12:04:08;4.60;99.90
20759;DHT22;10539;53.686;9.158;2023-02-25T12:06:43;4.70;99.90
20759;DHT22;10539;53.686;9.158;2023-02-25T12:12:43;5.00;99.90
20759;DHT22;10539;53.686;9.158;2023-02-25T12:15:47;5.00;99.90
20759;DHT22;10539;53.686;9.158;2023-02-25T12:21:51;5.00;99.90
20759;DHT22;10539;53.686;9.158;2023-02-25T12:27:09;5.00;99.90
20759;DHT22;10539;53.686;9.158;2023-02-25T12:32:46;5.20;99.90
20759;DHT22;10539;53.686;9.158;2023-02-25T12:41:36;5.00;99.90
20759;DHT22;10539;53.686;9.158;2023-02-25T12:44:12;5.10;99.90
20759;DHT22;10539;53.686;9.158;2023-02-25T12:47:12;5.20;99.90
20759;DHT22;10539;53.686;9.158;2023-02-25T12:53:05;5.30;99.90
20759;DHT22;10539;53.686;9.158;2023-02-25T13:14:56;5.40;99.90
20759;DHT22;10539;53.686;9.158;2023-02-25T13:31:58;5.40;99.90
20759;DHT22;10539;53.686;9.158;2023-02-25T13:34:58;5.50;99.90
20759;DHT22;10539;53.686;9.158;2023-02-25T13:37:41;5.70;99.90
20759;DHT22;10539;53.686;9.158;2023-02-25T13:40:38;5.70;99.90
20759;DHT22;10539;53.686;9.158;2023-02-25T14:13:51;5.40;99.90
20759;DHT22;10539;53.686;9.158;2023-02-25T14:16:42;5.40;99.90
20759;DHT22;10539;53.686;9.158;2023-02-25T14:19:48;5.50;99.90
20759;DHT22;10539;53.686;9.158;2023-02-25T14:27:36;5.40;99.90
20759;DHT22;10539;53.686;9.158;2023-02-25T14:33:17;5.40;99.90
20759;DHT22;10539;53.686;9.158;2023-02-25T14:38:52;5.30;99.90
20759;DHT22;10539;53.686;9.158;2023-02-25T14:44:00;5.30;99.90
20759;DHT22;10539;53.686;9.158;2023-02-25T14:46:35;5.40;99.90
20759;DHT22;10539;53.686;9.158;2023-02-25T15:09:40;5.30;99.90
20759;DHT22;10539;53.686;9.158;2023-02-25T15:20:42;5.30;99.90
20759;DHT22;10539;53.686;9.158;2023-02-25T15:23:10;5.30;99.90
20759;DHT22;10539;53.686;9.158;2023-02-25T15:26:40;5.30;99.90
20759;DHT22;10539;53.686;9.158;2023-02-25T15:28:36;5.30;99.90
20759;DHT22;10539;53.686;9.158;2023-02-25T15:31:08;5.30;99.90
20759;DHT22;10539;53.686;9.158;2023-02-25T15:33:39;5.30;99.90
20759;DHT22;10539;53.686;9.158;2023-02-25T15:38:43;5.30;99.90
20759;DHT22;10539;53.686;9.158;2023-02-25T15:43:57;5.40;99.90
20759;DHT22;10539;53.686;9.158;2023-02-25T15:49:31;5.40;99.90
20759;DHT22;10539;53.686;9.158;2023-02-25T15:51:59;5.40;99.90
20759;DHT22;10539;53.686;9.158;2023-02-25T16:05:18;5.40;99.90
20759;DHT22;10539;53.686;9.158;2023-02-25T16:07:58;5.40;99.90
20759;DHT22;10539;53.686;9.158;2023-02-25T16:10:41;5.30;99.90
20759;DHT22;10539;53.686;9.158;2023-02-25T16:13:20;5.20;99.90
20759;DHT22;10539;53.686;9.158;2023-02-25T16:15:51;5.10;99.90
20759;DHT22;10539;53.686;9.158;2023-02-25T16:18:41;5.10;99.90
20759;DHT22;10539;53.686;9.158;2023-02-25T16:21:20;5.00;99.90
20759;DHT22;10539;53.686;9.158;2023-02-25T16:23:47;5.00;99.90
20759;DHT22;10539;53.686;9.158;2023-02-25T16:26:42;4.90;99.90
20759;DHT22;10539;53.686;9.158;2023-02-25T16:32:03;4.90;99.90
20759;DHT22;10539;53.686;9.158;2023-02-25T16:34:39;4.80;99.90
20759;DHT22;10539;53.686;9.158;2023-02-25T16:37:16;4.70;99.90
20759;DHT22;10539;53.686;9.158;2023-02-25T16:39:46;4.70;99.90
20759;DHT22;10539;53.686;9.158;2023-02-25T16:42:14;4.60;99.90
20759;DHT22;10539;53.686;9.158;2023-02-25T16:44:45;4.50;99.90
20759;DHT22;10539;53.686;9.158;2023-02-25T16:47:24;4.20;99.90
20759;DHT22;10539;53.686;9.158;2023-02-25T16:49:53;4.10;99.90
20759;DHT22;10539;53.686;9.158;2023-02-25T16:52:27;3.70;99.90
20759;DHT22;10539;53.686;9.158;2023-02-25T16:55:03;3.50;99.90
20759;DHT22;10539;53.686;9.158;2023-02-25T16:57:34;3.30;99.90
20759;DHT22;10539;53.686;9.158;2023-02-25T17:02:42;3.20;99.90
20759;DHT22;10539;53.686;9.158;2023-02-25T17:05:27;3.20;99.90
20759;DHT22;10539;53.686;9.158;2023-02-25T17:07:56;3.20;99.90
20759;DHT22;10539;53.686;9.158;2023-02-25T17:10:31;3.30;99.90
20759;DHT22;10539;53.686;9.158;2023-02-25T17:13:00;3.20;99.90
20759;DHT22;10539;53.686;9.158;2023-02-25T17:15:30;3.20;99.90
20759;DHT22;10539;53.686;9.158;2023-02-25T17:20:33;3.10;99.90
20759;DHT22;10539;53.686;9.158;2023-02-25T17:23:10;3.10;99.90
20759;DHT22;10539;53.686;9.158;2023-02-25T17:25:42;3.10;99.90
20759;DHT22;10539;53.686;9.158;2023-02-25T17:28:19;3.00;99.90
20759;DHT22;10539;53.686;9.158;2023-02-25T17:30:45;3.00;99.90
20759;DHT22;10539;53.686;9.158;2023-02-25T17:33:26;3.00;99.90
20759;DHT22;10539;53.686;9.158;2023-02-25T17:35:58;2.90;99.90
20759;DHT22;10539;53.686;9.158;2023-02-25T17:38:26;2.90;99.90
20759;DHT22;10539;53.686;9.158;2023-02-25T17:40:53;2.90;99.90
20759;DHT22;10539;53.686;9.158;2023-02-25T17:43:21;2.90;99.90
20759;DHT22;10539;53.686;9.158;2023-02-25T17:48:57;2.80;99.90
20759;DHT22;10539;53.686;9.158;2023-02-25T17:51:30;2.70;99.90
20759;DHT22;10539;53.686;9.158;2023-02-25T17:53:58;2.70;99.90
20759;DHT22;10539;53.686;9.158;2023-02-25T17:56:29;2.60;99.90
20759;DHT22;10539;53.686;9.158;2023-02-25T17:59:27;2.60;99.90
20759;DHT22;10539;53.686;9.158;2023-02-25T18:02:00;2.60;99.90
20759;DHT22;10539;53.686;9.158;2023-02-25T18:04:36;2.60;99.90
20759;DHT22;10539;53.686;9.158;2023-02-25T18:07:29;2.60;99.90
20759;DHT22;10539;53.686;9.158;2023-02-25T18:10:00;2.60;99.90
20759;DHT22;10539;53.686;9.158;2023-02-25T18:12:29;2.60;99.90
20759;DHT22;10539;53.686;9.158;2023-02-25T18:14:58;2.60;99.90
20759;DHT22;10539;53.686;9.158;2023-02-25T18:17:31;2.50;99.90
20759;DHT22;10539;53.686;9.158;2023-02-25T18:20:01;2.60;99.90
20759;DHT22;10539;53.686;9.158;2023-02-25T18:25:06;2.60;99.90
20759;DHT22;10539;53.686;9.158;2023-02-25T18:27:34;2.60;99.90
20759;DHT22;10539;53.686;9.158;2023-02-25T18:32:36;2.60;99.90
20759;DHT22;10539;53.686;9.158;2023-02-25T18:35:04;2.60;99.90
20759;DHT22;10539;53.686;9.158;2023-02-25T18:37:31;2.60;99.90
20759;DHT22;10539;53.686;9.158;2023-02-25T18:39:57;2.60;99.90
20759;DHT22;10539;53.686;9.158;2023-02-25T18:42:23;2.70;99.90
20759;DHT22;10539;53.686;9.158;2023-02-25T18:44:49;2.60;99.90
20759;DHT22;10539;53.686;9.158;2023-02-25T18:47:15;2.70;99.90
20759;DHT22;10539;53.686;9.158;2023-02-25T18:49:43;2.70;99.90
20759;DHT22;10539;53.686;9.158;2023-02-25T18:52:20;2.70;99.90
20759;DHT22;10539;53.686;9.158;2023-02-25T18:54:46;2.80;99.90
20759;DHT22;10539;53.686;9.158;2023-02-25T18:57:18;2.80;99.90
20759;DHT22;10539;53.686;9.158;2023-02-25T18:59:45;2.80;99.90
20759;DHT22;10539;53.686;9.158;2023-02-25T19:02:33;2.80;99.90
20759;DHT22;10539;53.686;9.158;2023-02-25T19:05:02;2.90;99.90
20759;DHT22;10539;53.686;9.158;2023-02-25T19:07:31;2.90;99.90
20759;DHT22;10539;53.686;9.158;2023-02-25T19:09:57;2.90;99.90
20759;DHT22;10539;53.686;9.158;2023-02-25T19:12:25;2.90;99.90
20759;DHT22;10539;53.686;9.158;2023-02-25T19:14:56;3.00;99.90
20759;DHT22;10539;53.686;9.158;2023-02-25T19:17:23;2.90;99.90
20759;DHT22;10539;53.686;9.158;2023-02-25T19:19:49;2.90;99.90
20759;DHT22;10539;53.686;9.158;2023-02-25T19:22:15;2.80;99.90
20759;DHT22;10539;53.686;9.158;2023-02-25T19:24:42;2.80;99.90
20759;DHT22;10539;53.686;9.158;2023-02-25T19:27:21;2.80;99.90
20759;DHT22;10539;53.686;9.158;2023-02-25T19:29:48;2.70;99.90
20759;DHT22;10539;53.686;9.158;2023-02-25T19:32:15;2.60;99.90
20759;DHT22;10539;53.686;9.158;2023-02-25T19:34:41;2.60;99.90
20759;DHT22;10539;53.686;9.158;2023-02-25T19:37:07;2.60;99.90
20759;DHT22;10539;53.686;9.158;2023-02-25T19:39:33;2.60;99.90
20759;DHT22;10539;53.686;9.158;2023-02-25T19:41:59;2.50;99.90
20759;DHT22;10539;53.686;9.158;2023-02-25T19:44:25;2.50;99.90
20759;DHT22;10539;53.686;9.158;2023-02-25T19:46:50;2.40;99.90
20759;DHT22;10539;53.686;9.158;2023-02-25T19:49:16;2.40;99.90
20759;DHT22;10539;53.686;9.158;2023-02-25T19:51:42;2.40;99.90
20759;DHT22;10539;53.686;9.158;2023-02-25T19:54:08;2.40;99.90
20759;DHT22;10539;53.686;9.158;2023-02-25T19:56:34;2.40;99.90